createdAt,value
2017-09-12T00:02:01.044Z,78.50
2017-09-12T00:04:29.321Z,78.50
2017-09-12T00:06:57.604Z,78.90
2017-09-12T00:09:25.877Z,78.80
2017-09-12T00:11:54.176Z,79.30
2017-09-12T00:14:22.426Z,78.70
2017-09-12T00:16:50.680Z,78.70
2017-09-12T00:19:18.960Z,78.70
2017-09-12T00:21:47.227Z,78.30
2017-09-12T00:24:15.560Z,78.30
2017-09-12T00:26:44.741Z,78.40
2017-09-12T00:29:13.036Z,77.80
2017-09-12T00:31:41.305Z,78.00
2017-09-12T00:34:09.559Z,78.10
2017-09-12T00:36:37.879Z,77.50
2017-09-12T00:39:06.127Z,77.10
2017-09-12T00:41:34.398Z,77.20
2017-09-12T00:44:02.697Z,77.30
2017-09-12T00:46:30.948Z,76.90
2017-09-12T00:48:59.260Z,76.80
2017-09-12T00:51:27.530Z,76.00
2017-09-12T00:53:55.798Z,74.30
2017-09-12T00:56:24.084Z,73.70
2017-09-12T00:58:52.354Z,74.20
2017-09-12T01:01:20.673Z,73.70
2017-09-12T01:03:48.947Z,71.60
2017-09-12T01:06:17.208Z,71.00
2017-09-12T01:08:45.491Z,71.40
2017-09-12T01:11:13.760Z,70.80
2017-09-12T01:13:42.051Z,68.80
2017-09-12T01:16:10.319Z,69.50
2017-09-12T01:18:39.424Z,70.30
2017-09-12T01:21:07.696Z,70.30
2017-09-12T01:23:35.959Z,70.30
2017-09-12T01:28:38.981Z,69.40
2017-09-12T01:31:08.076Z,68.10
2017-09-12T01:33:37.125Z,68.70
2017-09-12T01:36:05.394Z,68.70
2017-09-12T01:38:33.687Z,68.80
2017-09-12T01:41:01.963Z,69.30
2017-09-12T01:43:30.256Z,70.00
2017-09-12T01:45:58.532Z,70.70
2017-09-12T01:48:26.844Z,70.90
2017-09-12T01:50:55.123Z,71.30
2017-09-12T01:53:23.392Z,71.50
2017-09-12T01:55:51.671Z,72.10
2017-09-12T01:58:19.948Z,72.10
2017-09-12T02:00:48.260Z,71.30
2017-09-12T02:03:16.533Z,72.40
2017-09-12T02:05:44.828Z,72.30
2017-09-12T02:08:13.129Z,72.20
2017-09-12T02:10:41.431Z,73.30
2017-09-12T02:13:09.735Z,74.00
2017-09-12T02:15:38.771Z,72.20
2017-09-12T02:18:07.035Z,73.20
2017-09-12T02:20:35.327Z,72.20
2017-09-12T02:23:04.391Z,73.60
2017-09-12T02:25:32.701Z,73.50
2017-09-12T02:28:00.964Z,73.90
2017-09-12T02:30:29.240Z,74.40
2017-09-12T02:32:57.516Z,74.90
2017-09-12T02:35:25.802Z,75.40
2017-09-12T02:37:54.111Z,75.40
2017-09-12T02:40:22.375Z,75.30
2017-09-12T02:42:50.656Z,75.80
2017-09-12T02:45:18.935Z,76.20
2017-09-12T02:47:47.217Z,75.80
2017-09-12T02:50:15.492Z,76.20
2017-09-12T02:52:44.525Z,77.30
2017-09-12T02:55:12.792Z,76.50
2017-09-12T02:57:41.070Z,76.40
2017-09-12T03:00:09.334Z,76.20
2017-09-12T03:02:37.628Z,76.10
2017-09-12T03:05:05.896Z,76.30
2017-09-12T03:07:34.151Z,76.10
2017-09-12T03:10:02.439Z,76.10
2017-09-12T03:12:30.696Z,75.90
2017-09-12T03:14:59.017Z,75.90
2017-09-12T03:17:28.058Z,76.10
2017-09-12T03:19:56.345Z,76.00
2017-09-12T03:22:24.619Z,76.20
2017-09-12T03:24:53.643Z,76.00
2017-09-12T03:27:21.949Z,75.90
2017-09-12T03:29:50.992Z,76.00
2017-09-12T03:32:19.253Z,75.60
2017-09-12T03:34:47.540Z,75.30
2017-09-12T03:37:15.799Z,75.40
2017-09-12T03:39:44.110Z,75.70
2017-09-12T03:42:13.140Z,75.20
2017-09-12T03:44:41.412Z,75.10
2017-09-12T03:47:09.695Z,75.20
2017-09-12T03:49:37.965Z,75.20
2017-09-12T03:52:06.248Z,75.40
2017-09-12T03:54:34.534Z,76.20
2017-09-12T03:57:03.636Z,75.60
2017-09-12T03:59:31.900Z,75.60
2017-09-12T04:02:00.184Z,76.10
2017-09-12T04:04:28.476Z,75.90
2017-09-12T04:06:57.516Z,74.60
2017-09-12T04:09:25.820Z,74.00
2017-09-12T04:11:54.096Z,72.60
2017-09-12T04:14:22.371Z,72.30
2017-09-12T04:16:50.651Z,73.00
2017-09-12T04:19:18.924Z,72.40
2017-09-12T04:21:47.229Z,72.40
2017-09-12T04:24:15.504Z,72.40
2017-09-12T04:26:44.668Z,72.60
2017-09-12T04:29:13.148Z,72.40
2017-09-12T04:31:42.202Z,72.40
2017-09-12T04:34:10.491Z,72.30
2017-09-12T04:36:39.519Z,72.30
2017-09-12T04:39:07.855Z,72.20
2017-09-12T04:41:36.148Z,72.30
2017-09-12T04:44:04.424Z,72.30
2017-09-12T04:46:32.731Z,72.40
2017-09-12T04:49:01.788Z,72.30
2017-09-12T04:51:30.132Z,72.30
2017-09-12T04:53:58.429Z,72.40
2017-09-12T04:56:27.459Z,72.40
2017-09-12T04:58:55.765Z,72.30
2017-09-12T05:01:24.791Z,72.50
2017-09-12T05:03:53.103Z,72.40
2017-09-12T05:06:22.144Z,72.50
2017-09-12T05:08:50.424Z,72.40
2017-09-12T05:11:19.480Z,72.40
2017-09-12T05:13:47.756Z,72.40
2017-09-12T05:16:17.560Z,72.40
2017-09-12T05:18:45.845Z,72.50
2017-09-12T05:21:14.875Z,72.50
2017-09-12T05:23:43.166Z,72.40
2017-09-12T05:26:11.433Z,72.50
2017-09-12T05:28:39.737Z,72.60
2017-09-12T05:31:08.008Z,72.60
2017-09-12T05:33:36.284Z,72.70
2017-09-12T05:36:04.572Z,72.70
2017-09-12T05:38:32.840Z,71.40
2017-09-12T05:41:01.151Z,72.80
2017-09-12T05:43:29.415Z,71.70
2017-09-12T05:45:57.671Z,72.30
2017-09-12T05:48:25.955Z,70.40
2017-09-12T05:50:54.239Z,70.90
2017-09-12T05:53:22.556Z,73.00
2017-09-12T05:55:50.832Z,72.30
2017-09-12T05:58:19.112Z,71.60
2017-09-12T06:00:47.397Z,70.70
2017-09-12T06:03:16.440Z,69.50
2017-09-12T06:05:44.757Z,69.50
2017-09-12T06:08:13.029Z,70.10
2017-09-12T06:10:41.352Z,70.40
2017-09-12T06:13:09.629Z,70.70
2017-09-12T06:15:38.660Z,71.20
2017-09-12T06:18:06.948Z,71.00
2017-09-12T06:20:35.224Z,68.30
2017-09-12T06:23:04.303Z,68.30
2017-09-12T06:25:33.350Z,68.00
2017-09-12T06:28:01.611Z,68.00
2017-09-12T06:30:29.904Z,66.30
2017-09-12T06:32:58.171Z,66.80
2017-09-12T06:35:27.444Z,65.10
2017-09-12T06:37:56.480Z,64.40
2017-09-12T06:40:24.790Z,64.30
2017-09-12T06:42:53.071Z,65.30
2017-09-12T06:45:21.347Z,63.60
2017-09-12T06:47:49.663Z,64.10
2017-09-12T06:50:17.928Z,64.20
2017-09-12T07:36:28.643Z,60.40
2017-09-12T07:38:57.675Z,59.30
2017-09-12T07:41:25.961Z,59.30
2017-09-12T07:43:55.748Z,60.10
2017-09-12T07:46:24.025Z,60.10
2017-09-12T07:48:53.104Z,57.70
2017-09-12T07:51:22.160Z,58.20
2017-09-12T07:53:50.426Z,58.10
2017-09-12T07:56:18.716Z,59.50
2017-09-12T07:58:47.756Z,60.80
2017-09-12T08:01:16.084Z,60.80
2017-09-12T08:03:44.400Z,58.50
2017-09-12T08:06:12.669Z,61.00
2017-09-12T08:08:41.835Z,59.70
2017-09-12T08:11:10.135Z,59.20
2017-09-12T08:13:38.519Z,59.50
2017-09-12T08:16:06.832Z,58.20
2017-09-12T08:18:35.131Z,58.10
2017-09-12T08:21:03.424Z,59.00
2017-09-12T08:23:31.728Z,58.10
2017-09-12T08:26:00.044Z,58.00
2017-09-12T08:28:28.323Z,58.40
2017-09-12T08:30:56.625Z,59.10
2017-09-12T08:33:25.718Z,59.10
2017-09-12T08:35:54.004Z,59.00
2017-09-12T08:38:22.327Z,58.10
2017-09-12T08:40:51.359Z,58.60
2017-09-12T08:43:19.633Z,58.60
2017-09-12T08:45:47.960Z,58.10
2017-09-12T08:48:16.237Z,58.10
2017-09-12T08:50:44.551Z,58.30
2017-09-12T08:53:13.624Z,58.20
2017-09-12T08:55:42.660Z,56.90
2017-09-12T08:58:10.952Z,56.80
2017-09-12T09:00:39.224Z,55.10
2017-09-12T09:03:08.432Z,53.30
2017-09-12T09:05:36.703Z,52.30
2017-09-12T09:08:04.973Z,52.40
2017-09-12T09:10:33.264Z,52.80
2017-09-12T09:13:01.552Z,53.10
2017-09-12T09:15:30.636Z,52.40
2017-09-12T09:17:59.668Z,53.20
2017-09-12T09:20:27.947Z,53.10
2017-09-12T09:22:56.300Z,52.90
2017-09-12T09:25:24.572Z,53.40
2017-09-12T09:27:52.880Z,54.60
2017-09-12T09:30:21.144Z,53.70
2017-09-12T09:32:49.424Z,53.70
2017-09-12T09:35:17.740Z,54.30
2017-09-12T09:37:46.060Z,51.60
2017-09-12T09:40:14.352Z,50.20
2017-09-12T09:42:42.632Z,50.10
2017-09-12T09:45:11.724Z,51.80
2017-09-12T09:47:39.996Z,51.80
2017-09-12T09:50:08.287Z,51.80
2017-09-12T09:52:36.583Z,52.50
2017-09-12T09:55:04.860Z,52.90
2017-09-12T09:57:33.180Z,50.90
2017-09-12T10:00:02.233Z,51.00
2017-09-12T10:02:30.522Z,51.00
2017-09-12T10:04:58.793Z,50.70
2017-09-12T10:07:27.096Z,49.30
2017-09-12T10:09:55.385Z,49.40
2017-09-12T10:12:23.888Z,49.90
2017-09-12T10:14:52.928Z,50.90
2017-09-12T10:17:21.220Z,50.80
2017-09-12T10:19:49.599Z,52.10
2017-09-12T10:22:17.868Z,49.00
2017-09-12T10:24:46.967Z,50.70
2017-09-12T10:27:15.252Z,50.60
2017-09-12T10:29:43.539Z,50.40
2017-09-12T10:32:11.837Z,50.50
2017-09-12T10:34:40.931Z,52.20
2017-09-12T10:37:09.196Z,52.20
2017-09-12T10:39:37.488Z,50.50
2017-09-12T10:42:05.788Z,49.80
2017-09-12T10:44:34.831Z,49.50
2017-09-12T10:47:03.167Z,49.60
2017-09-12T10:49:31.490Z,50.00
2017-09-12T10:52:00.534Z,47.20
2017-09-12T10:54:28.828Z,47.10
2017-09-12T10:56:57.105Z,47.70
2017-09-12T10:59:25.510Z,49.10
2017-09-12T11:01:53.783Z,47.40
2017-09-12T11:04:22.100Z,47.30
2017-09-12T11:06:50.375Z,47.80
2017-09-12T11:09:18.656Z,51.00
2017-09-12T11:11:46.997Z,50.60
2017-09-12T11:14:15.260Z,49.20
2017-09-12T11:16:43.548Z,44.00
2017-09-12T11:19:11.816Z,43.60
2017-09-12T11:21:40.212Z,44.50
2017-09-12T11:24:09.246Z,45.60
2017-09-12T11:26:37.523Z,45.60
2017-09-12T11:29:05.851Z,45.60
2017-09-12T11:31:34.123Z,44.40
2017-09-12T11:34:02.423Z,44.90
2017-09-12T11:36:30.713Z,45.40
2017-09-12T11:38:59.768Z,46.50
2017-09-12T11:41:28.046Z,47.00
2017-09-12T11:43:57.141Z,45.50
2017-09-12T11:46:25.418Z,45.50
2017-09-12T11:48:53.796Z,46.40
2017-09-12T11:51:22.075Z,46.00
2017-09-12T11:53:50.372Z,45.60
2017-09-12T11:56:19.416Z,45.70
2017-09-12T11:58:47.704Z,45.60
2017-09-12T12:01:16.756Z,46.30
2017-09-12T12:03:45.077Z,46.20
2017-09-12T12:06:13.369Z,45.10
2017-09-12T12:08:41.627Z,44.40
2017-09-12T12:11:09.911Z,45.20
2017-09-12T12:13:39.700Z,44.90
2017-09-12T12:16:08.101Z,44.90
2017-09-12T12:18:37.131Z,43.30
2017-09-12T12:21:05.405Z,43.30
2017-09-12T12:23:33.688Z,43.40
2017-09-12T12:26:01.963Z,43.30
2017-09-12T12:28:31.059Z,44.30
2017-09-12T12:31:00.093Z,45.50
2017-09-12T12:33:28.379Z,45.30
2017-09-12T12:35:57.429Z,45.10
2017-09-12T12:38:25.715Z,45.10
2017-09-12T12:40:54.004Z,48.00
2017-09-12T12:43:22.293Z,53.50
2017-09-12T12:45:50.719Z,54.80
2017-09-12T12:48:18.980Z,56.60
2017-09-12T12:50:47.284Z,56.40
2017-09-12T12:53:16.946Z,52.60
2017-09-12T12:55:45.259Z,52.60
2017-09-12T12:58:13.884Z,52.70
2017-09-12T13:00:42.164Z,53.70
2017-09-12T13:03:10.438Z,52.50
2017-09-12T13:05:38.736Z,53.50
2017-09-12T13:08:07.016Z,53.30
2017-09-12T13:10:35.324Z,52.60
2017-09-12T13:13:04.355Z,52.50
2017-09-12T13:15:32.627Z,52.30
2017-09-12T13:18:00.927Z,52.60
2017-09-12T13:20:29.204Z,54.10
2017-09-12T13:22:57.487Z,54.30
2017-09-12T13:25:25.772Z,53.40
2017-09-12T13:27:54.271Z,53.00
2017-09-12T13:30:22.540Z,54.70
2017-09-12T13:32:50.845Z,55.80
2017-09-12T13:35:19.176Z,54.30
2017-09-12T13:37:47.457Z,54.50
2017-09-12T13:40:15.803Z,51.50
2017-09-12T13:42:44.073Z,52.20
2017-09-12T13:45:12.345Z,47.40
2017-09-12T13:47:40.812Z,48.60
2017-09-12T13:50:09.107Z,46.10
2017-09-12T13:52:37.398Z,47.70
2017-09-12T13:55:05.664Z,50.20
2017-09-12T13:57:33.972Z,51.90
2017-09-12T14:00:02.243Z,47.40
2017-09-12T14:02:30.529Z,50.40
2017-09-12T14:04:58.861Z,45.90
2017-09-12T14:07:27.137Z,46.00
2017-09-12T14:09:55.409Z,46.90
2017-09-12T14:12:23.996Z,46.00
2017-09-12T14:14:52.280Z,47.20
2017-09-12T14:17:20.559Z,46.50
2017-09-12T14:19:48.899Z,47.60
2017-09-12T14:22:17.915Z,48.30
2017-09-12T14:24:47.023Z,50.10
2017-09-12T14:27:15.344Z,50.10
2017-09-12T14:29:44.385Z,49.00
2017-09-12T14:32:12.683Z,49.00
2017-09-12T14:34:43.568Z,48.10
2017-09-12T14:37:11.838Z,47.10
2017-09-12T14:39:40.120Z,48.40
2017-09-12T14:42:08.539Z,48.70
2017-09-12T14:44:36.825Z,51.70
2017-09-12T14:47:05.119Z,49.70
2017-09-12T14:49:34.205Z,50.20
2017-09-12T14:52:03.252Z,49.10
2017-09-12T14:54:31.557Z,49.10
2017-09-12T14:57:00.082Z,50.00
2017-09-12T14:59:28.356Z,50.70
2017-09-12T15:01:56.657Z,53.10
2017-09-12T15:04:24.948Z,54.40
2017-09-12T15:06:54.005Z,59.10
2017-09-12T15:09:22.289Z,58.90
2017-09-12T15:11:50.577Z,60.40
2017-09-12T15:14:18.856Z,59.70
2017-09-12T15:16:47.940Z,59.80
2017-09-12T15:19:16.196Z,59.70
2017-09-12T15:21:44.567Z,59.10
2017-09-12T15:24:12.840Z,54.50
2017-09-12T15:26:41.128Z,51.30
2017-09-12T15:29:09.403Z,50.90
2017-09-12T15:31:38.467Z,49.20
2017-09-12T15:34:06.896Z,49.10
2017-09-12T15:36:35.179Z,46.90
2017-09-12T15:39:03.468Z,47.70
2017-09-12T15:41:31.763Z,46.30
2017-09-12T15:44:00.276Z,46.90
2017-09-12T15:46:28.566Z,46.70
2017-09-12T15:48:57.629Z,47.80
2017-09-12T15:51:25.920Z,47.70
2017-09-12T15:53:54.188Z,49.60
2017-09-12T15:56:22.521Z,48.70
2017-09-12T15:58:50.796Z,49.90
2017-09-12T16:01:19.068Z,49.90
2017-09-12T16:03:47.351Z,48.80
2017-09-12T16:06:15.635Z,48.90
2017-09-12T16:08:43.940Z,51.30
2017-09-12T16:11:12.221Z,49.70
2017-09-12T16:13:40.528Z,50.30
2017-09-12T16:16:08.968Z,49.00
2017-09-12T16:18:37.257Z,50.40
2017-09-12T16:21:05.544Z,51.10
2017-09-12T16:23:34.588Z,49.10
2017-09-12T16:26:03.183Z,49.00
2017-09-12T16:28:31.470Z,49.20
2017-09-12T16:30:59.741Z,49.70
2017-09-12T16:33:28.036Z,50.00
2017-09-12T16:35:56.316Z,49.40
2017-09-12T16:38:24.613Z,50.70
2017-09-12T16:40:52.890Z,50.50
2017-09-12T16:43:21.188Z,51.50
2017-09-12T16:45:49.444Z,52.10
2017-09-12T16:48:17.747Z,52.60
2017-09-12T16:50:46.029Z,53.40
2017-09-12T16:53:14.352Z,53.90
2017-09-12T16:55:43.396Z,54.30
2017-09-12T16:58:11.705Z,54.40
2017-09-12T17:00:40.796Z,54.70
2017-09-12T17:03:09.081Z,55.50
2017-09-12T17:05:37.349Z,55.60
2017-09-12T17:08:05.684Z,55.90
2017-09-12T17:10:33.960Z,55.70
2017-09-12T17:13:02.233Z,55.80
2017-09-12T17:15:30.551Z,55.40
2017-09-12T17:17:58.859Z,55.30
2017-09-12T17:20:27.919Z,54.70
2017-09-12T17:22:56.180Z,54.60
2017-09-12T17:25:24.492Z,54.50
2017-09-12T17:27:52.765Z,54.20
2017-09-12T17:30:21.078Z,53.30
2017-09-12T17:32:49.352Z,53.70
2017-09-12T17:35:18.411Z,54.50
2017-09-12T17:37:46.684Z,54.40
2017-09-12T17:40:14.964Z,54.60
2017-09-12T17:42:43.240Z,54.70
2017-09-12T17:45:11.524Z,55.10
2017-09-12T17:47:39.797Z,55.60
2017-09-12T17:50:10.305Z,55.30
2017-09-12T17:52:38.581Z,55.20
2017-09-12T17:55:06.860Z,55.10
2017-09-12T17:57:35.136Z,55.90
2017-09-12T18:00:03.519Z,55.50
2017-09-12T18:02:31.796Z,55.60
2017-09-12T18:05:00.065Z,56.10
2017-09-12T18:07:28.348Z,56.40
2017-09-12T18:09:58.558Z,56.50
2017-09-12T18:12:26.848Z,56.80
2017-09-12T18:14:55.901Z,57.50
2017-09-12T18:17:24.184Z,57.50
2017-09-12T18:19:52.507Z,58.10
2017-09-12T18:22:20.803Z,57.50
2017-09-12T18:24:49.083Z,58.10
2017-09-12T18:27:17.517Z,58.70
2017-09-12T18:29:45.791Z,58.30
2017-09-12T18:32:14.069Z,58.40
2017-09-12T18:34:43.105Z,59.30
2017-09-12T18:37:11.412Z,59.30
2017-09-12T18:39:40.507Z,60.00
2017-09-12T18:42:08.793Z,60.00
2017-09-12T18:44:37.064Z,60.30
2017-09-12T18:47:05.340Z,60.50
2017-09-12T18:49:33.619Z,60.50
2017-09-12T18:52:02.690Z,61.10
2017-09-12T18:54:30.964Z,61.00
2017-09-12T18:56:59.247Z,61.80
2017-09-12T18:59:27.536Z,61.60
2017-09-12T19:01:55.838Z,61.30
2017-09-12T19:04:24.320Z,61.40
2017-09-12T19:06:52.614Z,61.40
2017-09-12T19:09:21.044Z,62.40
2017-09-12T19:11:50.092Z,62.90
2017-09-12T19:14:18.382Z,62.90
2017-09-12T19:16:46.685Z,62.70
2017-09-12T19:19:14.981Z,62.90
2017-09-12T19:21:43.290Z,63.10
2017-09-12T19:24:12.331Z,63.90
2017-09-12T19:26:40.595Z,63.80
2017-09-12T19:29:08.923Z,63.30
2017-09-12T19:31:37.184Z,63.70
2017-09-12T19:34:05.699Z,63.80
2017-09-12T19:36:34.004Z,64.20
2017-09-12T19:39:02.296Z,64.40
2017-09-12T19:41:30.585Z,65.10
2017-09-12T19:43:59.676Z,65.80
2017-09-12T19:46:28.698Z,65.80
2017-09-12T19:48:56.988Z,65.70
2017-09-12T19:51:25.252Z,65.80
2017-09-12T19:53:53.559Z,65.80
2017-09-12T19:56:21.859Z,65.80
2017-09-12T19:58:50.341Z,65.70
2017-09-12T20:01:18.608Z,65.80
2017-09-12T20:03:46.897Z,65.70
2017-09-12T20:06:15.969Z,65.80
2017-09-12T20:08:45.004Z,66.10
2017-09-12T20:11:13.520Z,66.10
2017-09-12T20:13:41.802Z,66.60
2017-09-12T20:16:10.067Z,66.50
2017-09-12T20:18:38.357Z,67.00
2017-09-12T20:21:06.640Z,67.70
2017-09-12T20:23:35.105Z,68.80
2017-09-12T20:26:04.156Z,69.40
2017-09-12T20:28:32.448Z,69.40
2017-09-12T20:31:01.605Z,70.30
2017-09-12T20:33:29.888Z,69.70
2017-09-12T20:35:58.195Z,69.70
2017-09-12T20:38:26.464Z,69.70
2017-09-12T20:40:54.745Z,69.40
2017-09-12T20:43:23.043Z,69.50
2017-09-12T20:45:51.316Z,69.70
2017-09-12T20:48:19.640Z,70.20
2017-09-12T20:50:47.932Z,70.60
2017-09-12T20:53:16.196Z,70.30
2017-09-12T20:55:44.500Z,70.40
2017-09-12T20:58:13.948Z,70.10
2017-09-12T21:00:42.252Z,70.00
2017-09-12T21:03:11.290Z,70.20
2017-09-12T21:05:40.499Z,70.30
2017-09-12T21:08:09.550Z,70.40
2017-09-12T21:10:38.042Z,70.80
2017-09-12T21:13:06.316Z,70.90
2017-09-12T21:15:35.347Z,71.50
2017-09-12T21:18:03.655Z,71.40
2017-09-12T21:20:31.964Z,71.30
2017-09-12T21:23:00.254Z,71.60
2017-09-12T21:25:28.543Z,71.50
2017-09-12T21:27:57.570Z,71.10
2017-09-12T21:30:25.867Z,71.70
2017-09-12T21:32:54.134Z,71.70
2017-09-12T21:35:23.232Z,72.40
2017-09-12T21:37:51.590Z,72.30
2017-09-12T21:40:20.644Z,72.80
2017-09-12T21:42:48.903Z,72.70
2017-09-12T21:45:17.210Z,72.80
2017-09-12T21:47:45.484Z,73.30
2017-09-12T21:50:13.788Z,73.80
2017-09-12T21:52:42.076Z,73.40
2017-09-12T21:55:11.141Z,74.20
2017-09-12T21:57:39.426Z,74.20
2017-09-12T22:00:07.760Z,73.50
2017-09-12T22:02:36.041Z,73.30
2017-09-12T22:05:05.075Z,73.40
2017-09-12T22:07:33.378Z,73.20
2017-09-12T22:10:02.441Z,73.30
2017-09-12T22:12:30.744Z,73.20
2017-09-12T22:14:59.041Z,72.70
2017-09-12T22:17:27.352Z,72.70
2017-09-12T22:19:56.388Z,72.10
2017-09-12T22:22:24.675Z,72.00
2017-09-12T22:24:53.740Z,72.40
2017-09-12T22:27:22.019Z,72.30
2017-09-12T22:29:51.278Z,71.70
2017-09-12T22:32:19.576Z,71.70
2017-09-12T22:34:47.986Z,71.60
2017-09-12T22:37:16.380Z,72.80
2017-09-12T22:39:44.670Z,72.40
2017-09-12T22:42:13.757Z,73.00
2017-09-12T22:44:42.030Z,73.00
2017-09-12T22:47:10.362Z,73.20
2017-09-12T22:49:39.400Z,73.00
2017-09-12T22:52:07.708Z,73.00
2017-09-12T22:54:36.773Z,72.80
2017-09-12T22:57:05.813Z,72.80
2017-09-12T22:59:34.103Z,72.60
2017-09-12T23:02:02.383Z,72.30
2017-09-12T23:04:31.428Z,72.30
2017-09-12T23:06:59.938Z,72.10
2017-09-12T23:09:28.996Z,72.20
2017-09-12T23:11:57.289Z,72.80
2017-09-12T23:14:25.589Z,72.70
2017-09-12T23:16:53.865Z,71.80
2017-09-12T23:19:22.152Z,71.20
2017-09-12T23:21:50.432Z,70.70
2017-09-12T23:24:18.944Z,71.30
2017-09-12T23:26:47.224Z,70.30
2017-09-12T23:29:15.528Z,70.80
2017-09-12T23:31:43.851Z,70.30
2017-09-12T23:34:12.138Z,70.90
2017-09-12T23:36:41.266Z,71.20
2017-09-12T23:39:09.552Z,71.20
2017-09-12T23:41:37.850Z,71.60
2017-09-12T23:44:06.901Z,71.30
2017-09-12T23:46:35.174Z,71.20
2017-09-12T23:49:03.455Z,71.60
2017-09-12T23:51:31.728Z,72.00
2017-09-12T23:54:00.037Z,72.00
2017-09-12T23:56:29.088Z,72.40
2017-09-12T23:58:57.407Z,72.30
